Time;durP1;ratioP1;P1;durP2;ratioP2;P2;SDS_P1;SDS_P2;PMS_P1;PMS_P2;Temp;Humidity;BMP_temperature;BMP_pressure;BME280_temperature;BME280_humidity;BME280_pressure;Samples;Min_cycle;Max_cycle;Signal;HPM_P1;HPM_P2
2020/12/22 00:00:06;;;;;;;25.48;14.85;;;;;;;4.88;89.83;100703.53;4970343;28;20058;-45
2020/12/22 00:02:40;;;;;;;24.00;15.23;;;;;;;5.02;89.78;100711.00;4966843;28;20043;-45
2020/12/22 00:05:07;;;;;;;25.20;14.95;;;;;;;4.96;89.83;100715.81;4974090;28;20042;-42
2020/12/22 00:07:33;;;;;;;28.05;14.73;;;;;;;5.04;89.45;100713.66;4973343;28;20054;-45
2020/12/22 00:10:00;;;;;;;25.00;14.75;;;;;;;5.06;89.21;100701.88;4973857;28;20059;-44
2020/12/22 00:12:28;;;;;;;24.70;14.95;;;;;;;5.05;89.49;100693.41;4969459;28;20043;-44
2020/12/22 00:14:55;;;;;;;24.73;14.70;;;;;;;4.94;89.57;100693.69;4970016;28;20054;-45
2020/12/22 00:17:22;;;;;;;25.83;14.80;;;;;;;4.79;90.02;100699.75;4968236;28;20050;-43
2020/12/22 00:19:49;;;;;;;24.33;14.50;;;;;;;5.07;89.34;100696.00;4970080;28;20046;-47
2020/12/22 00:22:17;;;;;;;25.17;14.98;;;;;;;5.13;89.54;100682.72;4967072;28;20046;-42
2020/12/22 00:24:44;;;;;;;26.08;14.70;;;;;;;4.68;90.79;100675.53;4972895;28;20057;-45
2020/12/22 00:27:10;;;;;;;23.48;14.70;;;;;;;5.16;88.67;100670.19;4971595;28;20484;-42
2020/12/22 00:29:37;;;;;;;24.30;14.68;;;;;;;5.32;88.13;100678.59;4963657;28;20383;-42
2020/12/22 00:32:05;;;;;;;24.58;14.07;;;;;;;5.26;88.46;100682.50;4964770;28;20047;-45
2020/12/22 00:34:32;;;;;;;23.67;13.63;;;;;;;5.21;88.48;100677.22;4970556;28;20053;-45
2020/12/22 00:37:00;;;;;;;24.35;14.27;;;;;;;5.33;87.84;100667.66;4968249;28;20505;-48
2020/12/22 00:39:28;;;;;;;24.83;14.60;;;;;;;5.39;87.85;100659.44;4971046;28;20258;-44
2020/12/22 00:41:56;;;;;;;25.15;15.20;;;;;;;5.28;88.29;100653.88;4969406;28;20424;-42
2020/12/22 00:44:24;;;;;;;22.80;13.35;;;;;;;5.40;87.77;100656.09;4971097;28;20105;-44
2020/12/22 00:46:54;;;;;;;24.85;14.73;;;;;;;5.32;88.41;100654.91;4966789;28;20823;-45
2020/12/22 00:49:21;;;;;;;23.00;14.55;;;;;;;5.43;87.54;100640.13;4965673;28;20058;-44
2020/12/22 00:51:47;;;;;;;23.75;14.65;;;;;;;5.30;87.96;100638.69;4970860;28;20460;-45
2020/12/22 00:54:14;;;;;;;24.10;13.52;;;;;;;5.36;88.45;100641.50;4965806;28;20064;-45
2020/12/22 00:56:41;;;;;;;24.80;14.40;;;;;;;5.18;88.54;100630.53;4967560;28;20592;-41
2020/12/22 00:59:08;;;;;;;23.40;14.40;;;;;;;5.23;88.56;100622.34;4967488;28;20114;-41
2020/12/22 01:01:34;;;;;;;25.02;15.40;;;;;;;5.37;88.05;100620.44;4974702;28;20042;-48
2020/12/22 01:04:01;;;;;;;23.85;13.73;;;;;;;5.51;87.50;100618.50;4969902;28;20047;-41
2020/12/22 01:06:38;;;;;;;24.25;13.73;;;;;;;5.53;86.94;100612.69;4968805;28;20055;-42
2020/12/22 01:09:06;;;;;;;24.70;14.68;;;;;;;5.60;87.17;100616.38;4969256;28;20051;-47
2020/12/22 01:11:37;;;;;;;25.35;15.27;;;;;;;5.55;87.12;100613.63;4964297;28;20047;-48
2020/12/22 01:14:07;;;;;;;22.70;14.32;;;;;;;5.43;87.23;100614.75;4969888;28;20394;-44
2020/12/22 01:16:34;;;;;;;25.98;14.10;;;;;;;5.53;87.67;100597.44;4971902;28;20046;-46
2020/12/22 01:19:00;;;;;;;23.00;13.57;;;;;;;5.60;86.81;100596.06;4970626;28;20050;-44
2020/12/22 01:21:27;;;;;;;23.88;14.45;;;;;;;5.66;86.39;100585.28;4973352;28;20089;-45
2020/12/22 01:23:53;;;;;;;26.90;14.85;;;;;;;5.61;86.47;100580.00;4965890;28;20059;-44
2020/12/22 01:26:22;;;;;;;21.88;13.95;;;;;;;5.67;86.71;100561.63;4972633;28;20082;-43
2020/12/22 01:28:49;;;;;;;25.83;15.38;;;;;;;5.54;86.64;100547.50;4967348;28;20093;-48
2020/12/22 01:31:27;;;;;;;22.30;13.20;;;;;;;5.51;86.24;100548.25;4974751;28;20046;-43
2020/12/22 01:33:54;;;;;;;23.25;14.90;;;;;;;5.60;86.51;100535.09;4971226;28;20051;-41
2020/12/22 01:36:22;;;;;;;24.85;13.85;;;;;;;5.52;86.89;100538.97;4966728;28;20130;-42
2020/12/22 01:38:49;;;;;;;21.90;14.00;;;;;;;5.66;86.43;100547.19;4971067;28;20129;-44
2020/12/22 01:41:16;;;;;;;21.88;13.82;;;;;;;5.68;86.39;100543.88;4968739;28;20093;-47
2020/12/22 01:43:59;;;;;;;23.38;14.35;;;;;;;5.70;86.36;100532.13;4968420;28;20118;-47
2020/12/22 01:46:32;;;;;;;26.00;14.73;;;;;;;5.61;86.94;100544.44;4966284;28;20038;-42
2020/12/22 01:49:00;;;;;;;22.45;14.55;;;;;;;5.63;86.12;100541.16;4969218;28;20062;-42
2020/12/22 01:51:30;;;;;;;23.75;15.02;;;;;;;5.54;87.11;100533.13;4970923;28;20113;-44
2020/12/22 01:53:57;;;;;;;25.77;15.35;;;;;;;5.83;85.53;100534.41;4969156;28;20047;-45
2020/12/22 01:56:23;;;;;;;26.98;13.82;;;;;;;5.77;85.71;100523.09;4969566;28;20113;-45
2020/12/22 01:58:50;;;;;;;26.13;14.13;;;;;;;5.78;85.92;100518.09;4968529;28;20190;-47
2020/12/22 02:01:16;;;;;;;25.00;15.60;;;;;;;5.78;85.92;100509.59;4967992;28;20055;-44
2020/12/22 02:03:44;;;;;;;26.50;15.88;;;;;;;5.83;85.57;100514.06;4972089;28;20842;-47
2020/12/22 02:06:11;;;;;;;21.92;14.90;;;;;;;5.79;85.99;100504.59;4968134;28;20059;-42
2020/12/22 02:08:37;;;;;;;24.65;15.50;;;;;;;5.82;85.86;100499.63;4968706;28;20128;-47
2020/12/22 02:11:05;;;;;;;27.75;15.48;;;;;;;5.89;85.85;100500.75;4966226;28;20047;-47
2020/12/22 02:13:31;;;;;;;24.08;15.70;;;;;;;5.80;86.25;100493.59;4969987;28;20401;-44
2020/12/22 02:15:58;;;;;;;23.60;14.90;;;;;;;5.93;85.85;100494.16;4966767;28;20090;-44
2020/12/22 02:18:25;;;;;;;25.67;15.38;;;;;;;5.90;86.07;100494.84;4971079;28;20052;-46
2020/12/22 02:20:51;;;;;;;28.30;16.50;;;;;;;5.76;87.12;100488.34;4966207;28;20051;-48
2020/12/22 02:23:18;;;;;;;26.50;15.65;;;;;;;5.68;88.17;100480.38;4971829;28;20046;-42
2020/12/22 02:25:46;;;;;;;24.30;15.20;;;;;;;5.56;88.91;100468.06;4967825;28;20417;-42
2020/12/22 02:28:13;;;;;;;28.33;16.27;;;;;;;5.84;88.10;100476.81;4970888;28;20042;-51
2020/12/22 02:30:40;;;;;;;25.90;15.60;;;;;;;5.74;89.07;100470.50;4966201;28;20100;-44
2020/12/22 02:33:06;;;;;;;26.08;15.95;;;;;;;5.78;89.25;100467.28;4969016;28;20505;-47
2020/12/22 02:35:33;;;;;;;29.02;17.77;;;;;;;5.78;90.85;100461.34;4969818;28;20075;-44
2020/12/22 02:37:59;;;;;;;25.90;16.08;;;;;;;5.57;91.77;100459.63;4967117;28;20046;-44
2020/12/22 02:40:25;;;;;;;26.48;16.83;;;;;;;5.84;91.67;100456.50;4966301;28;20046;-44
2020/12/22 02:42:52;;;;;;;29.50;18.35;;;;;;;5.83;92.09;100442.94;4965840;28;20101;-50
2020/12/22 02:45:19;;;;;;;27.75;18.00;;;;;;;5.82;92.63;100443.75;4971304;28;20531;-50
2020/12/22 02:47:45;;;;;;;33.25;18.42;;;;;;;5.70;93.54;100433.06;4966916;28;20177;-44
2020/12/22 02:50:11;;;;;;;27.75;18.40;;;;;;;5.94;92.70;100427.28;4963301;28;20109;-44
2020/12/22 02:52:38;;;;;;;30.33;18.20;;;;;;;5.71;94.12;100422.09;4968065;28;20095;-45
2020/12/22 02:55:05;;;;;;;31.92;18.60;;;;;;;5.80;94.36;100416.53;4970762;28;20122;-43
2020/12/22 02:57:31;;;;;;;29.30;17.90;;;;;;;5.90;93.67;100412.66;4969181;28;20112;-43
2020/12/22 02:59:58;;;;;;;29.17;18.42;;;;;;;5.86;94.39;100398.97;4966777;28;20047;-47
2020/12/22 03:02:24;;;;;;;29.05;18.20;;;;;;;5.70;95.60;100399.19;4972592;28;20471;-44
2020/12/22 03:04:50;;;;;;;30.42;17.90;;;;;;;5.71;95.32;100400.91;4961874;28;20122;-44
2020/12/22 03:07:17;;;;;;;33.15;18.60;;;;;;;5.82;96.05;100392.03;4961188;28;20050;-48
2020/12/22 03:09:44;;;;;;;33.05;19.00;;;;;;;5.67;96.83;100394.81;4964026;28;20098;-43
2020/12/22 03:12:10;;;;;;;30.75;18.88;;;;;;;5.76;96.49;100385.03;4968860;28;20067;-41
2020/12/22 03:14:36;;;;;;;30.10;18.10;;;;;;;5.79;96.71;100391.94;4966547;28;20047;-41
2020/12/22 03:17:03;;;;;;;33.80;19.42;;;;;;;5.65;97.34;100395.59;4967738;28;20102;-49
2020/12/22 03:19:29;;;;;;;31.23;18.42;;;;;;;5.63;97.78;100390.44;4961212;28;20051;-44
2020/12/22 03:21:56;;;;;;;34.47;19.02;;;;;;;5.62;98.19;100389.56;4969056;28;20051;-44
2020/12/22 03:24:22;;;;;;;37.38;20.90;;;;;;;5.65;98.28;100386.28;4967706;28;20058;-43
2020/12/22 03:26:48;;;;;;;30.73;17.77;;;;;;;5.73;97.95;100387.47;4967109;28;20121;-46
2020/12/22 03:29:15;;;;;;;33.13;19.05;;;;;;;5.78;97.92;100373.28;4969077;28;20156;-43
2020/12/22 03:31:42;;;;;;;35.40;18.48;;;;;;;5.78;98.35;100367.34;4970218;28;20042;-46
2020/12/22 03:34:08;;;;;;;35.63;19.38;;;;;;;5.84;97.97;100359.94;4960014;28;20051;-44
2020/12/22 03:36:35;;;;;;;37.28;19.85;;;;;;;5.87;98.07;100349.91;4972215;28;20074;-45
2020/12/22 03:39:02;;;;;;;38.78;20.17;;;;;;;5.62;99.50;100353.13;4972692;28;20047;-47
2020/12/22 03:41:29;;;;;;;32.42;18.17;;;;;;;5.65;99.41;100335.50;4972731;28;20062;-42
2020/12/22 03:43:56;;;;;;;34.55;20.50;;;;;;;5.84;98.89;100332.00;4969290;28;20051;-44
2020/12/22 03:46:23;;;;;;;33.90;19.67;;;;;;;5.80;99.28;100328.47;4973904;28;20093;-44
2020/12/22 03:48:50;;;;;;;33.90;19.27;;;;;;;5.70;99.68;100321.28;4962329;28;20050;-42
2020/12/22 03:51:17;;;;;;;37.97;20.45;;;;;;;5.56;100.00;100312.28;4968136;28;20054;-42
2020/12/22 03:53:43;;;;;;;37.47;21.42;;;;;;;5.79;100.00;100306.41;4968891;28;20062;-46
2020/12/22 03:56:10;;;;;;;43.15;23.23;;;;;;;5.50;100.00;100309.47;4973539;28;20111;-45
2020/12/22 03:58:36;;;;;;;39.35;21.60;;;;;;;5.58;100.00;100305.56;4971600;28;20050;-43
2020/12/22 04:01:03;;;;;;;37.00;21.05;;;;;;;5.67;100.00;100302.53;4972462;28;20051;-48
2020/12/22 04:03:29;;;;;;;36.85;20.55;;;;;;;5.62;100.00;100287.97;4966432;28;20051;-49
2020/12/22 04:05:56;;;;;;;38.53;22.00;;;;;;;5.76;100.00;100288.50;4969154;28;20080;-46
2020/12/22 04:08:22;;;;;;;35.58;20.50;;;;;;;5.65;100.00;100282.16;4973545;28;20050;-45
2020/12/22 04:10:48;;;;;;;39.55;22.27;;;;;;;5.71;100.00;100276.44;4964645;28;20097;-41
2020/12/22 04:13:15;;;;;;;42.25;22.35;;;;;;;5.63;100.00;100271.91;4974187;28;20053;-45
2020/12/22 04:15:42;;;;;;;38.83;22.13;;;;;;;5.61;100.00;100268.47;4969925;28;20051;-45
2020/12/22 04:18:09;;;;;;;38.92;20.90;;;;;;;5.71;100.00;100263.72;4970839;28;20050;-44
2020/12/22 04:20:39;;;;;;;40.95;22.55;;;;;;;5.84;100.00;100253.22;4969859;28;20109;-43
2020/12/22 04:23:06;;;;;;;42.97;22.55;;;;;;;5.74;100.00;100241.88;4971220;28;20121;-47
2020/12/22 04:25:32;;;;;;;41.65;22.10;;;;;;;5.69;100.00;100237.44;4972182;28;20941;-46
2020/12/22 04:27:59;;;;;;;41.08;22.30;;;;;;;5.62;100.00;100232.09;4967473;28;20161;-45
2020/12/22 04:30:25;;;;;;;43.83;23.45;;;;;;;5.65;100.00;100227.94;4968171;28;20070;-44
2020/12/22 04:32:52;;;;;;;45.17;23.08;;;;;;;5.67;100.00;100231.41;4968759;28;20078;-47
2020/12/22 04:35:18;;;;;;;41.38;23.05;;;;;;;5.93;100.00;100232.41;4963702;28;20584;-43
2020/12/22 04:37:45;;;;;;;38.47;21.35;;;;;;;5.86;100.00;100239.75;4951025;28;20133;-46
2020/12/22 04:40:12;;;;;;;40.97;21.80;;;;;;;5.84;100.00;100233.78;4971752;28;20054;-46
2020/12/22 04:42:42;;;;;;;41.78;22.42;;;;;;;5.86;100.00;100221.13;4970964;28;20059;-46
2020/12/22 04:45:09;;;;;;;40.63;21.70;;;;;;;5.76;100.00;100213.97;4970812;28;20050;-44
2020/12/22 04:47:41;;;;;;;42.22;22.42;;;;;;;5.86;100.00;100219.44;4971129;28;20081;-45
2020/12/22 04:50:08;;;;;;;41.20;22.42;;;;;;;5.75;100.00;100202.94;4964844;28;20074;-47
2020/12/22 04:52:35;;;;;;;37.83;21.17;;;;;;;5.73;100.00;100202.03;4969171;28;20092;-45
2020/12/22 04:55:03;;;;;;;43.22;22.75;;;;;;;5.84;100.00;100198.19;4964709;28;20498;-43
2020/12/22 04:57:33;;;;;;;35.55;20.88;;;;;;;5.90;100.00;100204.31;4968506;28;20050;-42
2020/12/22 05:00:01;;;;;;;41.20;21.40;;;;;;;5.94;100.00;100190.94;4969277;28;20047;-45
2020/12/22 05:02:28;;;;;;;41.50;21.45;;;;;;;5.97;100.00;100193.59;4966332;28;20042;-44
2020/12/22 05:04:55;;;;;;;38.25;22.48;;;;;;;5.96;100.00;100181.69;4963206;28;20100;-44
2020/12/22 05:07:21;;;;;;;40.03;22.08;;;;;;;5.90;100.00;100171.28;4974927;28;20049;-44
2020/12/22 05:09:48;;;;;;;39.05;22.58;;;;;;;6.02;100.00;100184.47;4970855;28;20082;-49
2020/12/22 05:12:14;;;;;;;36.83;21.35;;;;;;;6.01;100.00;100165.81;4973771;28;20516;-41
2020/12/22 05:14:41;;;;;;;43.25;22.02;;;;;;;5.87;100.00;100167.84;4969582;28;20456;-45
2020/12/22 05:17:13;;;;;;;37.13;20.08;;;;;;;5.96;100.00;100156.28;4970891;28;21589;-41
2020/12/22 05:19:41;;;;;;;36.75;21.02;;;;;;;6.16;100.00;100160.41;4963755;28;20054;-40
2020/12/22 05:22:09;;;;;;;38.13;20.52;;;;;;;6.08;100.00;100152.50;4979553;28;20057;-43
2020/12/22 05:24:38;;;;;;;35.10;19.77;;;;;;;6.04;100.00;100157.41;4971057;28;20493;-42
2020/12/22 05:27:09;;;;;;;33.95;19.95;;;;;;;6.26;100.00;100164.97;4970307;28;20058;-40
2020/12/22 05:29:36;;;;;;;35.97;19.20;;;;;;;6.23;100.00;100169.09;4973287;28;20046;-44
2020/12/22 05:32:03;;;;;;;34.20;19.77;;;;;;;6.23;100.00;100162.31;4971514;28;20051;-41
2020/12/22 05:34:30;;;;;;;33.35;19.88;;;;;;;6.35;100.00;100159.34;4970220;28;20826;-45
2020/12/22 05:36:59;;;;;;;35.80;20.20;;;;;;;6.28;100.00;100154.84;4970851;28;20050;-46
2020/12/22 05:39:26;;;;;;;30.45;18.27;;;;;;;6.38;100.00;100139.97;4964137;28;20448;-39
2020/12/22 05:41:55;;;;;;;34.25;19.20;;;;;;;6.36;100.00;100143.28;4973297;28;20070;-45
2020/12/22 05:44:26;;;;;;;32.45;18.23;;;;;;;6.51;100.00;100135.28;4973199;28;20078;-45
2020/12/22 05:46:53;;;;;;;34.45;18.80;;;;;;;6.58;100.00;100133.00;4968732;28;20046;-44
2020/12/22 05:49:21;;;;;;;28.63;17.80;;;;;;;6.71;100.00;100136.81;4969984;28;20046;-45
2020/12/22 05:51:47;;;;;;;26.80;16.00;;;;;;;6.76;100.00;100126.78;4968385;28;20054;-41
2020/12/22 05:54:17;;;;;;;26.27;15.95;;;;;;;6.73;100.00;100122.44;4974878;28;20050;-41
2020/12/22 05:56:45;;;;;;;29.20;16.13;;;;;;;6.78;100.00;100133.63;4970139;28;20047;-42
2020/12/22 05:59:30;;;;;;;27.65;16.73;;;;;;;6.79;100.00;100115.00;4977093;28;20050;-42
2020/12/22 06:01:58;;;;;;;31.30;17.92;;;;;;;6.67;100.00;100109.53;4962050;28;20154;-48
2020/12/22 06:04:25;;;;;;;31.65;18.05;;;;;;;6.52;100.00;100104.84;4967806;28;20564;-40
2020/12/22 06:06:52;;;;;;;29.58;16.83;;;;;;;6.75;100.00;100119.94;4970957;28;20521;-41
2020/12/22 06:09:19;;;;;;;29.25;16.63;;;;;;;6.82;100.00;100110.00;4973182;28;20047;-41
2020/12/22 06:11:49;;;;;;;27.80;17.15;;;;;;;6.75;100.00;100103.03;4968322;28;20042;-43
2020/12/22 06:14:24;;;;;;;26.38;16.60;;;;;;;6.79;100.00;100106.50;4966726;28;20049;-40
2020/12/22 06:16:51;;;;;;;29.10;16.63;;;;;;;6.69;100.00;100107.03;4967600;28;20042;-43
2020/12/22 06:19:21;;;;;;;28.40;15.52;;;;;;;6.89;100.00;100099.22;4971577;28;20046;-43
2020/12/22 06:21:58;;;;;;;25.63;14.82;;;;;;;6.75;100.00;100097.94;4971794;28;20043;-40
2020/12/22 06:24:26;;;;;;;23.58;14.82;;;;;;;6.92;100.00;100095.03;4971704;28;20057;-42
2020/12/22 06:27:00;;;;;;;27.00;16.67;;;;;;;7.03;100.00;100096.25;4967108;28;20053;-40
2020/12/22 06:29:26;;;;;;;24.98;15.48;;;;;;;7.06;100.00;100096.31;4971696;28;20058;-45
2020/12/22 06:31:53;;;;;;;22.52;14.20;;;;;;;7.19;100.00;100106.06;4967698;28;20858;-41
2020/12/22 06:34:24;;;;;;;18.73;12.18;;;;;;;7.26;100.00;100102.88;4967932;28;20057;-43
2020/12/22 06:37:00;;;;;;;21.95;13.25;;;;;;;7.38;100.00;100094.72;4966545;28;20445;-40
2020/12/22 06:39:43;;;;;;;21.52;11.57;;;;;;;7.39;100.00;100087.13;4966884;28;20104;-41
2020/12/22 06:42:30;;;;;;;20.20;11.10;;;;;;;7.53;100.00;100095.13;4970861;28;20063;-42
2020/12/22 06:45:36;;;;;;;16.63;10.27;;;;;;;7.58;100.00;100097.81;4969493;28;20043;-40
2020/12/22 06:48:02;;;;;;;12.50;7.97;;;;;;;7.62;100.00;100089.44;4924765;29;20052;-41
2020/12/22 06:50:40;;;;;;;15.55;9.35;;;;;;;7.75;100.00;100081.31;4912051;29;20043;-39
2020/12/22 06:53:35;;;;;;;14.10;8.20;;;;;;;7.79;100.00;100085.69;4949928;28;20042;-39
2020/12/22 06:56:03;;;;;;;14.63;8.70;;;;;;;7.90;100.00;100083.41;4967716;28;20051;-40
2020/12/22 06:58:47;;;;;;;10.35;7.25;;;;;;;7.97;100.00;100075.13;4967185;28;20053;-40
2020/12/22 07:01:26;;;;;;;13.18;7.75;;;;;;;7.97;100.00;100070.00;4970966;28;20046;-43
2020/12/22 07:03:54;;;;;;;13.05;7.95;;;;;;;8.02;100.00;100065.03;4969117;28;20043;-41
2020/12/22 07:06:43;;;;;;;12.07;8.63;;;;;;;8.05;100.00;100065.13;4975635;28;20046;-41
2020/12/22 07:09:17;;;;;;;10.73;7.18;;;;;;;8.02;100.00;100063.34;4967995;28;20155;-40
2020/12/22 07:11:43;;;;;;;7.90;6.63;;;;;;;8.12;100.00;100067.84;4970482;28;20047;-39
2020/12/22 07:14:14;;;;;;;9.55;6.28;;;;;;;8.16;100.00;100062.00;4980185;28;20051;-41
2020/12/22 07:16:50;;;;;;;10.05;6.88;;;;;;;8.17;100.00;100057.75;4968993;28;20121;-42
2020/12/22 07:19:29;;;;;;;8.18;5.05;;;;;;;8.29;100.00;100064.88;4972080;28;20042;-45
2020/12/22 07:22:07;;;;;;;9.65;4.95;;;;;;;8.33;100.00;100057.34;4973132;28;20051;-45
2020/12/22 07:24:35;;;;;;;6.20;4.65;;;;;;;8.37;100.00;100048.09;4969134;28;20423;-40
2020/12/22 07:27:02;;;;;;;5.20;3.47;;;;;;;8.37;100.00;100054.06;4971590;28;20109;-40
2020/12/22 07:29:29;;;;;;;5.38;4.47;;;;;;;8.41;100.00;100053.31;4974146;28;20046;-39
2020/12/22 07:31:59;;;;;;;7.85;5.03;;;;;;;8.52;100.00;100060.34;4970780;28;20047;-43
2020/12/22 07:34:26;;;;;;;3.78;2.65;;;;;;;8.57;100.00;100048.56;4974700;28;20053;-42
2020/12/22 07:37:02;;;;;;;6.75;3.72;;;;;;;8.56;100.00;100057.91;4972123;28;20113;-45
2020/12/22 07:39:32;;;;;;;3.83;2.97;;;;;;;8.65;100.00;100047.91;4974062;28;20054;-41
2020/12/22 07:42:10;;;;;;;5.10;3.95;;;;;;;8.61;100.00;100051.22;4970822;28;20047;-43
2020/12/22 07:44:37;;;;;;;4.28;3.60;;;;;;;8.71;100.00;100048.88;4972188;28;20089;-41
2020/12/22 07:47:04;;;;;;;3.55;3.22;;;;;;;8.74;100.00;100051.53;4971906;28;20047;-42
2020/12/22 07:49:30;;;;;;;3.97;3.22;;;;;;;8.77;100.00;100041.34;4973848;28;20109;-40
2020/12/22 07:51:57;;;;;;;4.75;2.90;;;;;;;8.75;100.00;100043.88;4970478;28;20050;-42
2020/12/22 07:54:27;;;;;;;4.50;3.15;;;;;;;8.84;100.00;100053.44;4974608;28;20046;-40
2020/12/22 07:56:59;;;;;;;5.82;2.65;;;;;;;8.87;100.00;100054.38;4969876;28;20055;-40
2020/12/22 07:59:27;;;;;;;3.90;2.28;;;;;;;8.86;100.00;100046.66;4974791;28;20567;-46
2020/12/22 08:01:54;;;;;;;3.50;2.15;;;;;;;8.95;100.00;100038.34;4972242;28;20101;-40
2020/12/22 08:04:27;;;;;;;4.70;2.20;;;;;;;8.97;100.00;100047.78;4976625;28;20096;-45
2020/12/22 08:06:59;;;;;;;2.63;1.73;;;;;;;8.98;100.00;100049.50;4970005;28;20120;-43
2020/12/22 08:09:28;;;;;;;2.00;1.80;;;;;;;8.98;100.00;100046.09;4974279;28;20046;-42
2020/12/22 08:12:00;;;;;;;1.75;1.35;;;;;;;9.04;100.00;100054.72;4969507;28;20134;-40
2020/12/22 08:14:28;;;;;;;1.40;1.30;;;;;;;9.07;100.00;100044.59;4973745;28;20054;-42
2020/12/22 08:17:01;;;;;;;1.75;1.45;;;;;;;9.13;100.00;100047.25;4969684;28;20095;-46
2020/12/22 08:19:34;;;;;;;1.38;1.10;;;;;;;9.13;100.00;100038.75;4973629;28;20050;-40
2020/12/22 08:22:01;;;;;;;2.35;1.00;;;;;;;9.17;100.00;100048.19;4970419;28;20055;-44
2020/12/22 08:24:29;;;;;;;1.30;1.05;;;;;;;9.21;100.00;100052.53;4973304;28;20046;-45
2020/12/22 08:26:56;;;;;;;1.00;0.80;;;;;;;9.21;100.00;100055.09;4969755;28;20106;-44
2020/12/22 08:29:23;;;;;;;1.25;0.90;;;;;;;9.31;100.00;100054.44;4974106;28;20075;-43
2020/12/22 08:31:54;;;;;;;1.10;0.70;;;;;;;9.29;100.00;100048.47;4969404;28;20051;-40
2020/12/22 08:34:21;;;;;;;1.00;0.90;;;;;;;9.32;100.00;100055.31;4971336;28;20042;-46
2020/12/22 08:36:48;;;;;;;1.17;0.95;;;;;;;9.34;100.00;100062.19;4969689;28;20050;-41
2020/12/22 08:39:25;;;;;;;1.17;0.80;;;;;;;9.36;100.00;100057.97;4973764;28;20097;-43
2020/12/22 08:41:54;;;;;;;1.77;1.08;;;;;;;9.39;100.00;100070.81;4970017;28;20513;-41
2020/12/22 08:44:22;;;;;;;1.33;0.82;;;;;;;9.48;100.00;100057.34;4973916;28;20046;-43
2020/12/22 08:46:49;;;;;;;0.93;0.82;;;;;;;9.58;100.00;100063.50;4969340;28;20043;-44
2020/12/22 08:49:20;;;;;;;1.00;0.73;;;;;;;9.70;100.00;100069.69;4974303;28;20567;-48
2020/12/22 08:51:48;;;;;;;1.42;0.80;;;;;;;9.85;100.00;100075.97;4969691;28;20047;-45
2020/12/22 08:54:15;;;;;;;1.60;0.90;;;;;;;9.92;100.00;100072.66;4974017;28;20081;-40
2020/12/22 08:56:42;;;;;;;2.38;0.73;;;;;;;10.04;100.00;100064.38;4969922;28;20078;-43
2020/12/22 08:59:10;;;;;;;0.77;0.77;;;;;;;10.19;100.00;100068.03;4972207;28;20047;-41
2020/12/22 09:01:45;;;;;;;0.35;0.35;;;;;;;10.25;99.19;100066.44;4971120;28;20480;-44
2020/12/22 09:04:14;;;;;;;0.63;0.50;;;;;;;10.34;99.81;100075.13;4977269;28;20060;-42
2020/12/22 09:06:48;;;;;;;0.50;0.40;;;;;;;10.38;99.50;100071.78;4970016;28;20059;-40
2020/12/22 09:09:23;;;;;;;0.30;0.30;;;;;;;10.45;98.70;100071.06;4964691;28;20047;-40
2020/12/22 09:11:50;;;;;;;0.60;0.50;;;;;;;10.41;99.54;100076.13;4971083;28;20046;-42
2020/12/22 09:14:18;;;;;;;0.68;0.43;;;;;;;10.43;99.56;100085.53;4966838;28;20046;-45
2020/12/22 09:16:57;;;;;;;0.38;0.35;;;;;;;10.53;98.80;100062.63;4965672;28;20046;-43
2020/12/22 09:19:45;;;;;;;0.68;0.50;;;;;;;10.57;98.25;100070.38;4969755;28;20504;-45
2020/12/22 09:22:13;;;;;;;0.40;0.40;;;;;;;10.58;98.50;100071.25;4972589;28;20057;-40
2020/12/22 09:24:41;;;;;;;0.45;0.40;;;;;;;10.59;98.18;100070.44;4966877;28;20077;-39
2020/12/22 09:27:11;;;;;;;0.68;0.35;;;;;;;10.59;99.04;100071.28;4967927;28;20129;-43
2020/12/22 09:29:40;;;;;;;0.40;0.40;;;;;;;10.66;98.68;100070.53;4965529;28;20054;-42
2020/12/22 09:32:10;;;;;;;0.90;0.40;;;;;;;10.72;98.94;100074.88;4967901;28;20081;-47
2020/12/22 09:34:38;;;;;;;0.57;0.25;;;;;;;10.87;98.49;100077.69;4970021;28;20046;-40
2020/12/22 09:37:09;;;;;;;0.80;0.45;;;;;;;10.94;97.56;100082.03;4969987;28;20082;-50
2020/12/22 09:39:38;;;;;;;0.60;0.40;;;;;;;11.12;97.70;100095.94;4968192;28;20055;-43
2020/12/22 09:42:05;;;;;;;0.35;0.35;;;;;;;11.13;97.12;100072.03;4967871;28;20057;-43
2020/12/22 09:44:34;;;;;;;0.70;0.50;;;;;;;11.31;96.54;100087.66;4968422;28;20058;-46
2020/12/22 09:47:00;;;;;;;0.43;0.30;;;;;;;11.31;96.24;100091.94;4966601;28;20054;-41
2020/12/22 09:49:27;;;;;;;1.00;0.30;;;;;;;11.22;96.44;100079.84;4966460;28;20504;-44
2020/12/22 09:51:54;;;;;;;0.40;0.40;;;;;;;11.25;96.85;100092.72;4968914;28;20046;-43
2020/12/22 09:54:21;;;;;;;1.55;0.30;;;;;;;11.36;96.44;100096.28;4972786;28;20046;-41
2020/12/22 09:56:49;;;;;;;0.32;0.32;;;;;;;11.37;96.25;100094.56;4970030;28;20058;-45
2020/12/22 09:59:17;;;;;;;1.05;0.40;;;;;;;11.54;95.98;100092.22;4973030;28;20858;-44
2020/12/22 10:01:46;;;;;;;0.38;0.30;;;;;;;11.59;95.51;100086.31;4969053;28;20050;-43
2020/12/22 10:04:13;;;;;;;0.43;0.40;;;;;;;11.59;95.15;100086.31;4972847;28;20046;-43
2020/12/22 10:06:40;;;;;;;0.40;0.40;;;;;;;11.61;95.40;100094.88;4969063;28;20042;-42
2020/12/22 10:09:06;;;;;;;1.10;0.50;;;;;;;11.53;95.60;100087.94;4970788;28;20046;-43
2020/12/22 10:11:35;;;;;;;0.32;0.32;;;;;;;11.63;95.53;100100.88;4969269;28;20047;-39
2020/12/22 10:14:06;;;;;;;2.13;0.50;;;;;;;11.59;95.00;100104.25;4970750;28;20575;-40
2020/12/22 10:16:33;;;;;;;1.00;0.40;;;;;;;11.41;96.55;100093.75;4964200;28;20054;-43
2020/12/22 10:19:01;;;;;;;0.90;0.68;;;;;;;11.53;96.45;100103.31;4964291;28;20433;-43
2020/12/22 10:21:28;;;;;;;1.02;0.40;;;;;;;11.51;96.58;100098.19;4965381;28;20050;-43
2020/12/22 10:24:16;;;;;;;0.47;0.47;;;;;;;11.53;96.46;100091.38;4966290;28;20058;-39
2020/12/22 10:26:41;;;;;;;0.30;0.30;;;;;;;11.55;96.18;100091.38;4964019;28;20108;-41
2020/12/22 10:29:09;;;;;;;0.30;0.30;;;;;;;11.63;95.86;100089.75;4966314;28;20133;-39
2020/12/22 10:31:39;;;;;;;0.20;0.20;;;;;;;11.58;96.05;100097.41;4965213;28;20169;-42
2020/12/22 10:34:06;;;;;;;2.22;0.40;;;;;;;11.63;95.70;100100.88;4965489;28;20046;-46
2020/12/22 10:36:33;;;;;;;1.65;0.40;;;;;;;11.66;95.86;100100.06;4964652;28;20053;-42
2020/12/22 10:39:03;;;;;;;0.30;0.30;;;;;;;11.70;95.90;100104.41;4965826;28;20046;-44
2020/12/22 10:41:36;;;;;;;0.63;0.50;;;;;;;11.60;97.81;100110.22;4965303;28;20065;-45
2020/12/22 10:44:03;;;;;;;2.25;0.40;;;;;;;11.56;98.77;100103.38;4967460;28;20101;-45
2020/12/22 10:46:33;;;;;;;1.85;0.57;;;;;;;11.39;100.00;100114.25;4969586;28;20054;-40
2020/12/22 10:49:00;;;;;;;0.50;0.47;;;;;;;11.38;100.00;100112.56;4971177;28;20505;-44
2020/12/22 10:51:31;;;;;;;0.70;0.50;;;;;;;11.30;100.00;100103.03;4970971;28;20054;-41
2020/12/22 10:53:58;;;;;;;0.52;0.52;;;;;;;11.36;100.00;100103.09;4969618;28;20061;-45
2020/12/22 10:56:24;;;;;;;1.67;0.75;;;;;;;11.34;100.00;100108.22;4968466;28;20058;-41
2020/12/22 10:58:51;;;;;;;0.57;0.50;;;;;;;11.45;100.00;100109.22;4969996;28;20043;-42
2020/12/22 11:01:19;;;;;;;0.82;0.60;;;;;;;11.48;100.00;100105.84;4969085;28;20053;-45
2020/12/22 11:03:45;;;;;;;0.45;0.45;;;;;;;11.57;100.00;100107.66;4963091;28;20428;-43
2020/12/22 11:06:27;;;;;;;1.02;0.40;;;;;;;11.66;100.00;100098.38;4968575;28;20878;-46
2020/12/22 11:08:54;;;;;;;0.60;0.60;;;;;;;11.84;99.55;100107.16;4968658;28;20051;-40
2020/12/22 11:11:20;;;;;;;0.93;0.60;;;;;;;11.97;99.66;100114.13;4972056;28;20862;-42
2020/12/22 11:13:47;;;;;;;2.08;0.60;;;;;;;12.16;98.04;100108.34;4967026;28;20109;-45
2020/12/22 11:16:13;;;;;;;1.17;0.40;;;;;;;12.45;96.01;100116.31;4966174;28;20070;-49
2020/12/22 11:18:43;;;;;;;0.47;0.47;;;;;;;12.35;96.44;100124.78;4966899;28;20086;-44
2020/12/22 11:21:11;;;;;;;1.30;0.45;;;;;;;12.29;95.81;100124.69;4972536;28;20055;-41
2020/12/22 11:23:47;;;;;;;0.75;0.55;;;;;;;12.15;96.51;100116.88;4967529;28;20057;-45